sensor_id;sensor_type;location;lat;lon;timestamp;P1;durP1;ratioP1;P2;durP2;ratioP2
20567;SDS011;10442;49.932;11.592;2023-07-28T00:00:27;2.55;;;2.30;;
20567;SDS011;10442;49.932;11.592;2023-07-28T00:02:55;2.55;;;2.35;;
20567;SDS011;10442;49.932;11.592;2023-07-28T00:05:23;2.92;;;2.67;;
20567;SDS011;10442;49.932;11.592;2023-07-28T00:07:50;2.30;;;2.15;;
20567;SDS011;10442;49.932;11.592;2023-07-28T00:10:19;2.75;;;2.42;;
20567;SDS011;10442;49.932;11.592;2023-07-28T00:12:46;2.78;;;2.58;;
20567;SDS011;10442;49.932;11.592;2023-07-28T00:15:14;4.43;;;2.42;;
20567;SDS011;10442;49.932;11.592;2023-07-28T00:17:41;2.90;;;2.70;;
20567;SDS011;10442;49.932;11.592;2023-07-28T00:20:10;2.40;;;2.30;;
20567;SDS011;10442;49.932;11.592;2023-07-28T00:22:38;3.50;;;3.20;;
20567;SDS011;10442;49.932;11.592;2023-07-28T00:25:05;2.92;;;2.72;;
20567;SDS011;10442;49.932;11.592;2023-07-28T00:27:33;3.25;;;3.05;;
20567;SDS011;10442;49.932;11.592;2023-07-28T00:30:00;3.38;;;3.05;;
20567;SDS011;10442;49.932;11.592;2023-07-28T00:32:28;2.80;;;2.55;;
20567;SDS011;10442;49.932;11.592;2023-07-28T00:34:55;2.97;;;2.72;;
20567;SDS011;10442;49.932;11.592;2023-07-28T00:37:23;2.65;;;2.45;;
20567;SDS011;10442;49.932;11.592;2023-07-28T00:39:50;3.83;;;2.88;;
20567;SDS011;10442;49.932;11.592;2023-07-28T00:42:17;2.90;;;2.70;;
20567;SDS011;10442;49.932;11.592;2023-07-28T00:44:45;2.75;;;2.55;;
20567;SDS011;10442;49.932;11.592;2023-07-28T00:47:12;2.92;;;2.13;;
20567;SDS011;10442;49.932;11.592;2023-07-28T00:49:40;3.20;;;3.00;;
20567;SDS011;10442;49.932;11.592;2023-07-28T00:52:07;3.80;;;2.78;;
20567;SDS011;10442;49.932;11.592;2023-07-28T00:54:35;2.75;;;2.60;;
20567;SDS011;10442;49.932;11.592;2023-07-28T00:57:03;2.65;;;2.45;;
20567;SDS011;10442;49.932;11.592;2023-07-28T00:59:32;3.30;;;2.42;;
20567;SDS011;10442;49.932;11.592;2023-07-28T01:01:59;2.30;;;2.10;;
20567;SDS011;10442;49.932;11.592;2023-07-28T01:04:28;2.30;;;2.20;;
20567;SDS011;10442;49.932;11.592;2023-07-28T01:07:01;2.20;;;2.00;;
20567;SDS011;10442;49.932;11.592;2023-07-28T01:09:39;2.55;;;2.35;;
20567;SDS011;10442;49.932;11.592;2023-07-28T01:12:21;2.63;;;2.10;;
20567;SDS011;10442;49.932;11.592;2023-07-28T01:14:51;2.53;;;2.30;;
20567;SDS011;10442;49.932;11.592;2023-07-28T01:17:18;1.85;;;1.75;;
20567;SDS011;10442;49.932;11.592;2023-07-28T01:19:46;2.17;;;2.05;;
20567;SDS011;10442;49.932;11.592;2023-07-28T01:22:17;2.45;;;2.25;;
20567;SDS011;10442;49.932;11.592;2023-07-28T01:25:28;2.60;;;2.40;;
20567;SDS011;10442;49.932;11.592;2023-07-28T01:28:17;2.25;;;2.08;;
20567;SDS011;10442;49.932;11.592;2023-07-28T01:30:45;2.90;;;2.05;;
20567;SDS011;10442;49.932;11.592;2023-07-28T01:33:13;2.03;;;1.92;;
20567;SDS011;10442;49.932;11.592;2023-07-28T01:35:41;2.53;;;2.15;;
20567;SDS011;10442;49.932;11.592;2023-07-28T01:38:08;2.22;;;2.08;;
20567;SDS011;10442;49.932;11.592;2023-07-28T01:40:35;1.83;;;1.73;;
20567;SDS011;10442;49.932;11.592;2023-07-28T01:43:03;1.38;;;1.33;;
20567;SDS011;10442;49.932;11.592;2023-07-28T01:45:30;2.42;;;2.33;;
20567;SDS011;10442;49.932;11.592;2023-07-28T01:47:58;1.30;;;1.30;;
20567;SDS011;10442;49.932;11.592;2023-07-28T01:50:25;1.10;;;1.10;;
20567;SDS011;10442;49.932;11.592;2023-07-28T01:52:52;1.30;;;1.20;;
20567;SDS011;10442;49.932;11.592;2023-07-28T01:55:20;1.42;;;1.33;;
20567;SDS011;10442;49.932;11.592;2023-07-28T01:57:54;1.40;;;1.30;;
20567;SDS011;10442;49.932;11.592;2023-07-28T02:00:26;3.20;;;1.08;;
20567;SDS011;10442;49.932;11.592;2023-07-28T02:02:54;1.15;;;1.10;;
20567;SDS011;10442;49.932;11.592;2023-07-28T02:05:22;1.75;;;1.42;;
20567;SDS011;10442;49.932;11.592;2023-07-28T02:07:49;1.15;;;1.02;;
20567;SDS011;10442;49.932;11.592;2023-07-28T02:10:17;1.05;;;1.05;;
20567;SDS011;10442;49.932;11.592;2023-07-28T02:12:45;1.98;;;1.30;;
20567;SDS011;10442;49.932;11.592;2023-07-28T02:15:13;1.63;;;1.52;;
20567;SDS011;10442;49.932;11.592;2023-07-28T02:17:42;1.33;;;1.33;;
20567;SDS011;10442;49.932;11.592;2023-07-28T02:20:10;1.45;;;1.35;;
20567;SDS011;10442;49.932;11.592;2023-07-28T02:22:39;1.02;;;1.02;;
20567;SDS011;10442;49.932;11.592;2023-07-28T02:25:07;0.95;;;0.93;;
20567;SDS011;10442;49.932;11.592;2023-07-28T02:27:39;1.00;;;1.00;;
20567;SDS011;10442;49.932;11.592;2023-07-28T02:30:07;1.30;;;1.20;;
20567;SDS011;10442;49.932;11.592;2023-07-28T02:32:35;1.30;;;1.30;;
20567;SDS011;10442;49.932;11.592;2023-07-28T02:35:03;1.25;;;1.20;;
20567;SDS011;10442;49.932;11.592;2023-07-28T02:37:32;1.40;;;1.30;;
20567;SDS011;10442;49.932;11.592;2023-07-28T02:39:59;1.55;;;1.45;;
20567;SDS011;10442;49.932;11.592;2023-07-28T02:42:27;1.90;;;1.80;;
20567;SDS011;10442;49.932;11.592;2023-07-28T02:44:55;1.17;;;1.17;;
20567;SDS011;10442;49.932;11.592;2023-07-28T02:47:22;1.23;;;1.23;;
20567;SDS011;10442;49.932;11.592;2023-07-28T02:49:50;2.35;;;1.20;;
20567;SDS011;10442;49.932;11.592;2023-07-28T02:52:17;1.00;;;1.00;;
20567;SDS011;10442;49.932;11.592;2023-07-28T02:54:45;1.88;;;1.67;;
20567;SDS011;10442;49.932;11.592;2023-07-28T02:57:12;0.88;;;0.88;;
20567;SDS011;10442;49.932;11.592;2023-07-28T02:59:42;1.75;;;1.27;;
20567;SDS011;10442;49.932;11.592;2023-07-28T03:02:10;1.40;;;1.30;;
20567;SDS011;10442;49.932;11.592;2023-07-28T03:04:37;1.58;;;1.48;;
20567;SDS011;10442;49.932;11.592;2023-07-28T03:07:10;1.33;;;1.30;;
20567;SDS011;10442;49.932;11.592;2023-07-28T03:09:39;1.55;;;1.45;;
20567;SDS011;10442;49.932;11.592;2023-07-28T03:12:07;1.25;;;1.25;;
20567;SDS011;10442;49.932;11.592;2023-07-28T03:14:35;1.50;;;1.40;;
20567;SDS011;10442;49.932;11.592;2023-07-28T03:17:02;1.70;;;1.60;;
20567;SDS011;10442;49.932;11.592;2023-07-28T03:19:30;1.27;;;1.13;;
20567;SDS011;10442;49.932;11.592;2023-07-28T03:21:57;1.08;;;1.08;;
20567;SDS011;10442;49.932;11.592;2023-07-28T03:24:25;1.45;;;1.35;;
20567;SDS011;10442;49.932;11.592;2023-07-28T03:26:52;1.67;;;1.58;;
20567;SDS011;10442;49.932;11.592;2023-07-28T03:29:20;1.10;;;1.10;;
20567;SDS011;10442;49.932;11.592;2023-07-28T03:31:49;1.65;;;1.55;;
20567;SDS011;10442;49.932;11.592;2023-07-28T03:34:18;1.85;;;1.75;;
20567;SDS011;10442;49.932;11.592;2023-07-28T03:36:46;1.83;;;1.52;;
20567;SDS011;10442;49.932;11.592;2023-07-28T03:39:14;1.60;;;1.50;;
20567;SDS011;10442;49.932;11.592;2023-07-28T03:41:45;1.55;;;1.45;;
20567;SDS011;10442;49.932;11.592;2023-07-28T03:44:13;1.85;;;1.70;;
20567;SDS011;10442;49.932;11.592;2023-07-28T03:46:42;1.30;;;1.30;;
20567;SDS011;10442;49.932;11.592;2023-07-28T03:49:10;1.50;;;1.40;;
20567;SDS011;10442;49.932;11.592;2023-07-28T03:51:37;1.30;;;1.30;;
20567;SDS011;10442;49.932;11.592;2023-07-28T03:54:05;1.38;;;1.27;;
20567;SDS011;10442;49.932;11.592;2023-07-28T03:56:32;3.08;;;1.30;;
20567;SDS011;10442;49.932;11.592;2023-07-28T03:59:00;1.50;;;1.38;;
20567;SDS011;10442;49.932;11.592;2023-07-28T04:01:28;1.83;;;1.40;;
20567;SDS011;10442;49.932;11.592;2023-07-28T04:03:55;1.85;;;1.23;;
20567;SDS011;10442;49.932;11.592;2023-07-28T04:06:42;1.38;;;1.13;;
20567;SDS011;10442;49.932;11.592;2023-07-28T04:09:11;1.48;;;1.38;;
20567;SDS011;10442;49.932;11.592;2023-07-28T04:11:39;1.42;;;1.33;;
20567;SDS011;10442;49.932;11.592;2023-07-28T04:14:07;1.67;;;1.13;;
20567;SDS011;10442;49.932;11.592;2023-07-28T04:16:35;1.10;;;1.10;;
20567;SDS011;10442;49.932;11.592;2023-07-28T04:19:03;1.17;;;1.08;;
20567;SDS011;10442;49.932;11.592;2023-07-28T04:21:31;2.58;;;1.45;;
20567;SDS011;10442;49.932;11.592;2023-07-28T04:23:58;1.20;;;1.20;;
20567;SDS011;10442;49.932;11.592;2023-07-28T04:26:26;1.98;;;1.88;;
20567;SDS011;10442;49.932;11.592;2023-07-28T04:28:59;1.15;;;1.10;;
20567;SDS011;10442;49.932;11.592;2023-07-28T04:31:28;1.02;;;1.02;;
20567;SDS011;10442;49.932;11.592;2023-07-28T04:34:01;0.90;;;0.90;;
20567;SDS011;10442;49.932;11.592;2023-07-28T04:36:50;0.95;;;0.95;;
20567;SDS011;10442;49.932;11.592;2023-07-28T04:39:22;1.10;;;1.10;;
20567;SDS011;10442;49.932;11.592;2023-07-28T04:41:50;1.42;;;1.00;;
20567;SDS011;10442;49.932;11.592;2023-07-28T04:44:17;1.10;;;1.02;;
20567;SDS011;10442;49.932;11.592;2023-07-28T04:46:47;1.02;;;0.93;;
20567;SDS011;10442;49.932;11.592;2023-07-28T04:49:15;1.00;;;1.00;;
20567;SDS011;10442;49.932;11.592;2023-07-28T04:52:08;1.45;;;0.70;;
20567;SDS011;10442;49.932;11.592;2023-07-28T04:54:45;0.88;;;0.80;;
20567;SDS011;10442;49.932;11.592;2023-07-28T04:57:12;0.95;;;0.95;;
20567;SDS011;10442;49.932;11.592;2023-07-28T04:59:42;1.00;;;1.00;;
20567;SDS011;10442;49.932;11.592;2023-07-28T05:02:10;1.02;;;0.90;;
20567;SDS011;10442;49.932;11.592;2023-07-28T05:04:37;0.88;;;0.88;;
20567;SDS011;10442;49.932;11.592;2023-07-28T05:07:05;0.70;;;0.70;;
20567;SDS011;10442;49.932;11.592;2023-07-28T05:09:32;2.42;;;1.08;;
20567;SDS011;10442;49.932;11.592;2023-07-28T05:11:59;1.83;;;1.00;;
20567;SDS011;10442;49.932;11.592;2023-07-28T05:14:28;0.85;;;0.85;;
20567;SDS011;10442;49.932;11.592;2023-07-28T05:16:55;1.95;;;0.90;;
20567;SDS011;10442;49.932;11.592;2023-07-28T05:19:33;1.13;;;1.13;;
20567;SDS011;10442;49.932;11.592;2023-07-28T05:22:01;0.98;;;0.90;;
20567;SDS011;10442;49.932;11.592;2023-07-28T05:24:43;0.98;;;0.98;;
20567;SDS011;10442;49.932;11.592;2023-07-28T05:27:12;1.05;;;1.05;;
20567;SDS011;10442;49.932;11.592;2023-07-28T05:29:42;0.88;;;0.88;;
20567;SDS011;10442;49.932;11.592;2023-07-28T05:32:10;0.80;;;0.80;;
20567;SDS011;10442;49.932;11.592;2023-07-28T05:34:58;1.02;;;0.93;;
20567;SDS011;10442;49.932;11.592;2023-07-28T05:37:25;1.05;;;1.05;;
20567;SDS011;10442;49.932;11.592;2023-07-28T05:39:53;0.80;;;0.80;;
20567;SDS011;10442;49.932;11.592;2023-07-28T05:42:21;1.00;;;1.00;;
20567;SDS011;10442;49.932;11.592;2023-07-28T05:44:51;2.70;;;1.98;;
20567;SDS011;10442;49.932;11.592;2023-07-28T05:47:20;1.65;;;1.55;;
20567;SDS011;10442;49.932;11.592;2023-07-28T05:49:47;4.57;;;1.48;;
20567;SDS011;10442;49.932;11.592;2023-07-28T05:52:15;1.00;;;0.85;;
20567;SDS011;10442;49.932;11.592;2023-07-28T05:54:43;1.17;;;1.08;;
20567;SDS011;10442;49.932;11.592;2023-07-28T05:57:10;1.02;;;1.00;;
20567;SDS011;10442;49.932;11.592;2023-07-28T05:59:37;0.77;;;0.77;;
20567;SDS011;10442;49.932;11.592;2023-07-28T06:02:05;1.40;;;1.33;;
20567;SDS011;10442;49.932;11.592;2023-07-28T06:04:41;2.15;;;1.08;;
20567;SDS011;10442;49.932;11.592;2023-07-28T06:07:09;3.55;;;1.30;;
20567;SDS011;10442;49.932;11.592;2023-07-28T06:09:37;0.95;;;0.95;;
20567;SDS011;10442;49.932;11.592;2023-07-28T06:12:05;1.17;;;1.10;;
20567;SDS011;10442;49.932;11.592;2023-07-28T06:14:33;3.20;;;0.90;;
20567;SDS011;10442;49.932;11.592;2023-07-28T06:17:02;0.95;;;0.95;;
20567;SDS011;10442;49.932;11.592;2023-07-28T06:19:32;2.58;;;1.00;;
20567;SDS011;10442;49.932;11.592;2023-07-28T06:22:00;1.02;;;1.00;;
20567;SDS011;10442;49.932;11.592;2023-07-28T06:24:29;1.65;;;1.17;;
20567;SDS011;10442;49.932;11.592;2023-07-28T06:26:59;1.17;;;1.15;;
20567;SDS011;10442;49.932;11.592;2023-07-28T06:29:27;0.85;;;0.85;;
20567;SDS011;10442;49.932;11.592;2023-07-28T06:31:54;1.10;;;1.00;;
20567;SDS011;10442;49.932;11.592;2023-07-28T06:34:22;2.38;;;2.17;;
20567;SDS011;10442;49.932;11.592;2023-07-28T06:36:49;3.67;;;3.47;;
20567;SDS011;10442;49.932;11.592;2023-07-28T06:39:17;3.08;;;2.88;;
20567;SDS011;10442;49.932;11.592;2023-07-28T06:41:44;1.63;;;1.50;;
20567;SDS011;10442;49.932;11.592;2023-07-28T06:44:13;3.60;;;3.30;;
20567;SDS011;10442;49.932;11.592;2023-07-28T06:46:41;1.50;;;1.40;;
20567;SDS011;10442;49.932;11.592;2023-07-28T06:49:12;1.00;;;1.00;;
20567;SDS011;10442;49.932;11.592;2023-07-28T06:51:39;0.93;;;0.90;;
20567;SDS011;10442;49.932;11.592;2023-07-28T06:54:07;0.70;;;0.70;;
20567;SDS011;10442;49.932;11.592;2023-07-28T06:56:39;0.77;;;0.77;;
20567;SDS011;10442;49.932;11.592;2023-07-28T06:59:07;0.68;;;0.68;;
20567;SDS011;10442;49.932;11.592;2023-07-28T07:01:45;1.83;;;1.73;;
20567;SDS011;10442;49.932;11.592;2023-07-28T07:04:13;3.00;;;1.85;;
20567;SDS011;10442;49.932;11.592;2023-07-28T07:06:41;0.70;;;0.70;;
20567;SDS011;10442;49.932;11.592;2023-07-28T07:09:08;0.80;;;0.80;;
20567;SDS011;10442;49.932;11.592;2023-07-28T07:11:36;0.80;;;0.80;;
20567;SDS011;10442;49.932;11.592;2023-07-28T07:14:04;1.23;;;1.00;;
20567;SDS011;10442;49.932;11.592;2023-07-28T07:16:32;1.42;;;1.33;;
20567;SDS011;10442;49.932;11.592;2023-07-28T07:19:01;2.58;;;1.02;;
20567;SDS011;10442;49.932;11.592;2023-07-28T07:21:29;1.27;;;1.17;;
20567;SDS011;10442;49.932;11.592;2023-07-28T07:23:56;0.90;;;0.90;;
20567;SDS011;10442;49.932;11.592;2023-07-28T07:26:26;1.60;;;1.10;;
20567;SDS011;10442;49.932;11.592;2023-07-28T07:28:54;0.75;;;0.65;;
20567;SDS011;10442;49.932;11.592;2023-07-28T07:31:21;1.73;;;1.13;;
20567;SDS011;10442;49.932;11.592;2023-07-28T07:33:49;0.80;;;0.80;;
20567;SDS011;10442;49.932;11.592;2023-07-28T07:36:17;1.98;;;0.98;;
20567;SDS011;10442;49.932;11.592;2023-07-28T07:38:47;0.90;;;0.90;;
20567;SDS011;10442;49.932;11.592;2023-07-28T07:41:16;0.60;;;0.60;;
20567;SDS011;10442;49.932;11.592;2023-07-28T07:43:47;0.63;;;0.63;;
20567;SDS011;10442;49.932;11.592;2023-07-28T07:46:16;0.80;;;0.80;;
20567;SDS011;10442;49.932;11.592;2023-07-28T07:48:43;1.10;;;0.75;;
20567;SDS011;10442;49.932;11.592;2023-07-28T07:51:11;1.00;;;0.82;;
20567;SDS011;10442;49.932;11.592;2023-07-28T07:53:39;0.68;;;0.68;;
20567;SDS011;10442;49.932;11.592;2023-07-28T07:56:07;0.60;;;0.60;;
20567;SDS011;10442;49.932;11.592;2023-07-28T07:58:36;0.50;;;0.50;;
20567;SDS011;10442;49.932;11.592;2023-07-28T08:01:04;0.80;;;0.80;;
20567;SDS011;10442;49.932;11.592;2023-07-28T08:03:32;0.77;;;0.77;;
20567;SDS011;10442;49.932;11.592;2023-07-28T08:05:59;0.68;;;0.68;;
20567;SDS011;10442;49.932;11.592;2023-07-28T08:08:27;0.50;;;0.50;;
20567;SDS011;10442;49.932;11.592;2023-07-28T08:10:54;1.27;;;0.68;;
20567;SDS011;10442;49.932;11.592;2023-07-28T08:13:23;0.68;;;0.68;;
20567;SDS011;10442;49.932;11.592;2023-07-28T08:15:52;0.52;;;0.52;;
20567;SDS011;10442;49.932;11.592;2023-07-28T08:18:20;0.60;;;0.60;;
20567;SDS011;10442;49.932;11.592;2023-07-28T08:20:47;0.60;;;0.60;;
20567;SDS011;10442;49.932;11.592;2023-07-28T08:23:15;1.25;;;1.10;;
20567;SDS011;10442;49.932;11.592;2023-07-28T08:25:42;0.60;;;0.60;;
20567;SDS011;10442;49.932;11.592;2023-07-28T08:28:10;0.60;;;0.60;;
20567;SDS011;10442;49.932;11.592;2023-07-28T08:30:38;1.35;;;0.90;;
20567;SDS011;10442;49.932;11.592;2023-07-28T08:33:05;0.68;;;0.68;;
20567;SDS011;10442;49.932;11.592;2023-07-28T08:35:33;1.63;;;0.60;;
20567;SDS011;10442;49.932;11.592;2023-07-28T08:38:01;0.90;;;0.50;;
20567;SDS011;10442;49.932;11.592;2023-07-28T08:40:30;0.82;;;0.80;;
20567;SDS011;10442;49.932;11.592;2023-07-28T08:42:58;0.50;;;0.50;;
20567;SDS011;10442;49.932;11.592;2023-07-28T08:45:25;0.98;;;0.98;;
20567;SDS011;10442;49.932;11.592;2023-07-28T08:47:53;1.05;;;1.05;;
20567;SDS011;10442;49.932;11.592;2023-07-28T08:50:21;0.70;;;0.70;;
20567;SDS011;10442;49.932;11.592;2023-07-28T08:52:48;1.20;;;1.10;;
20567;SDS011;10442;49.932;11.592;2023-07-28T08:55:17;0.60;;;0.60;;
20567;SDS011;10442;49.932;11.592;2023-07-28T08:57:45;0.93;;;0.90;;
20567;SDS011;10442;49.932;11.592;2023-07-28T09:00:12;0.70;;;0.70;;
20567;SDS011;10442;49.932;11.592;2023-07-28T09:02:41;1.17;;;1.05;;
20567;SDS011;10442;49.932;11.592;2023-07-28T09:05:19;1.13;;;1.13;;
20567;SDS011;10442;49.932;11.592;2023-07-28T09:07:47;0.88;;;0.85;;
20567;SDS011;10442;49.932;11.592;2023-07-28T09:10:15;1.08;;;1.02;;
20567;SDS011;10442;49.932;11.592;2023-07-28T09:12:44;0.88;;;0.80;;
20567;SDS011;10442;49.932;11.592;2023-07-28T09:15:13;1.00;;;1.00;;
20567;SDS011;10442;49.932;11.592;2023-07-28T09:17:43;0.98;;;0.98;;
20567;SDS011;10442;49.932;11.592;2023-07-28T09:20:12;0.95;;;0.95;;
20567;SDS011;10442;49.932;11.592;2023-07-28T09:22:42;0.80;;;0.80;;
20567;SDS011;10442;49.932;11.592;2023-07-28T09:25:11;1.08;;;1.08;;
20567;SDS011;10442;49.932;11.592;2023-07-28T09:27:50;0.82;;;0.82;;
20567;SDS011;10442;49.932;11.592;2023-07-28T09:30:18;0.90;;;0.88;;
20567;SDS011;10442;49.932;11.592;2023-07-28T09:32:50;0.80;;;0.80;;
20567;SDS011;10442;49.932;11.592;2023-07-28T09:35:22;6.40;;;5.50;;
20567;SDS011;10442;49.932;11.592;2023-07-28T09:37:50;1.40;;;1.30;;
20567;SDS011;10442;49.932;11.592;2023-07-28T09:40:20;1.17;;;1.08;;
20567;SDS011;10442;49.932;11.592;2023-07-28T09:42:49;1.30;;;1.30;;
20567;SDS011;10442;49.932;11.592;2023-07-28T09:45:22;0.95;;;0.95;;
20567;SDS011;10442;49.932;11.592;2023-07-28T09:48:05;2.72;;;1.67;;
20567;SDS011;10442;49.932;11.592;2023-07-28T09:50:36;0.93;;;0.93;;
20567;SDS011;10442;49.932;11.592;2023-07-28T09:53:07;1.50;;;0.82;;
20567;SDS011;10442;49.932;11.592;2023-07-28T09:55:38;1.60;;;1.50;;
20567;SDS011;10442;49.932;11.592;2023-07-28T09:58:09;1.02;;;1.02;;
20567;SDS011;10442;49.932;11.592;2023-07-28T10:00:39;0.80;;;0.80;;
20567;SDS011;10442;49.932;11.592;2023-07-28T10:03:08;1.15;;;1.15;;
20567;SDS011;10442;49.932;11.592;2023-07-28T10:05:36;1.08;;;1.08;;
20567;SDS011;10442;49.932;11.592;2023-07-28T10:08:05;0.63;;;0.63;;
20567;SDS011;10442;49.932;11.592;2023-07-28T10:10:33;3.40;;;2.33;;
20567;SDS011;10442;49.932;11.592;2023-07-28T10:13:01;1.40;;;1.35;;
20567;SDS011;10442;49.932;11.592;2023-07-28T10:15:30;1.77;;;0.88;;
20567;SDS011;10442;49.932;11.592;2023-07-28T10:17:59;0.77;;;0.77;;
20567;SDS011;10442;49.932;11.592;2023-07-28T10:20:38;0.80;;;0.80;;
20567;SDS011;10442;49.932;11.592;2023-07-28T10:25:46;5.75;;;5.18;;
20567;SDS011;10442;49.932;11.592;2023-07-28T10:28:32;7.50;;;6.35;;
20567;SDS011;10442;49.932;11.592;2023-07-28T10:31:05;1.77;;;1.67;;
20567;SDS011;10442;49.932;11.592;2023-07-28T10:33:36;1.00;;;1.00;;
20567;SDS011;10442;49.932;11.592;2023-07-28T10:36:16;1.38;;;0.85;;
20567;SDS011;10442;49.932;11.592;2023-07-28T10:42:02;1.52;;;1.33;;
20567;SDS011;10442;49.932;11.592;2023-07-28T10:44:30;0.75;;;0.75;;
20567;SDS011;10442;49.932;11.592;2023-07-28T10:46:58;0.80;;;0.75;;
20567;SDS011;10442;49.932;11.592;2023-07-28T10:49:26;1.77;;;1.67;;
20567;SDS011;10442;49.932;11.592;2023-07-28T10:51:54;0.80;;;0.80;;
20567;SDS011;10442;49.932;11.592;2023-07-28T10:54:22;1.08;;;1.08;;
20567;SDS011;10442;49.932;11.592;2023-07-28T10:56:50;1.40;;;1.20;;
20567;SDS011;10442;49.932;11.592;2023-07-28T10:59:17;1.10;;;0.68;;
20567;SDS011;10442;49.932;11.592;2023-07-28T11:01:46;2.30;;;0.93;;
20567;SDS011;10442;49.932;11.592;2023-07-28T11:04:18;0.93;;;0.93;;
20567;SDS011;10442;49.932;11.592;2023-07-28T11:06:48;0.60;;;0.60;;
20567;SDS011;10442;49.932;11.592;2023-07-28T11:09:16;1.10;;;1.10;;
20567;SDS011;10442;49.932;11.592;2023-07-28T11:11:45;1.48;;;1.35;;
20567;SDS011;10442;49.932;11.592;2023-07-28T11:14:14;1.60;;;1.50;;
20567;SDS011;10442;49.932;11.592;2023-07-28T11:16:43;1.17;;;1.00;;
20567;SDS011;10442;49.932;11.592;2023-07-28T11:19:14;1.05;;;1.05;;
20567;SDS011;10442;49.932;11.592;2023-07-28T11:21:43;1.95;;;1.08;;
20567;SDS011;10442;49.932;11.592;2023-07-28T11:24:18;1.35;;;1.00;;
20567;SDS011;10442;49.932;11.592;2023-07-28T11:26:47;1.00;;;1.00;;
20567;SDS011;10442;49.932;11.592;2023-07-28T11:29:16;1.20;;;0.63;;
20567;SDS011;10442;49.932;11.592;2023-07-28T11:31:45;1.17;;;1.08;;
20567;SDS011;10442;49.932;11.592;2023-07-28T11:34:14;1.40;;;1.30;;
20567;SDS011;10442;49.932;11.592;2023-07-28T11:36:43;5.07;;;1.45;;
20567;SDS011;10442;49.932;11.592;2023-07-28T11:39:11;0.63;;;0.63;;
20567;SDS011;10442;49.932;11.592;2023-07-28T11:41:41;1.10;;;1.10;;
20567;SDS011;10442;49.932;11.592;2023-07-28T11:44:10;1.00;;;1.00;;
20567;SDS011;10442;49.932;11.592;2023-07-28T11:46:39;0.80;;;0.80;;
20567;SDS011;10442;49.932;11.592;2023-07-28T11:49:15;0.80;;;0.80;;
20567;SDS011;10442;49.932;11.592;2023-07-28T11:51:47;0.70;;;0.70;;
20567;SDS011;10442;49.932;11.592;2023-07-28T11:54:16;1.20;;;1.15;;
20567;SDS011;10442;49.932;11.592;2023-07-28T11:56:51;1.45;;;1.35;;
20567;SDS011;10442;49.932;11.592;2023-07-28T11:59:22;1.63;;;1.30;;
20567;SDS011;10442;49.932;11.592;2023-07-28T12:01:54;0.90;;;0.90;;
20567;SDS011;10442;49.932;11.592;2023-07-28T12:04:28;0.75;;;0.75;;
20567;SDS011;10442;49.932;11.592;2023-07-28T12:09:48;0.80;;;0.80;;
20567;SDS011;10442;49.932;11.592;2023-07-28T12:12:29;1.15;;;0.80;;
20567;SDS011;10442;49.932;11.592;2023-07-28T12:20:46;2.03;;;1.13;;
20567;SDS011;10442;49.932;11.592;2023-07-28T12:23:15;1.15;;;1.15;;
20567;SDS011;10442;49.932;11.592;2023-07-28T12:25:50;0.77;;;0.77;;
20567;SDS011;10442;49.932;11.592;2023-07-28T12:28:20;0.75;;;0.75;;
20567;SDS011;10442;49.932;11.592;2023-07-28T12:30:48;1.05;;;1.02;;
20567;SDS011;10442;49.932;11.592;2023-07-28T12:33:18;2.90;;;1.08;;
20567;SDS011;10442;49.932;11.592;2023-07-28T12:35:48;0.90;;;0.90;;
20567;SDS011;10442;49.932;11.592;2023-07-28T12:38:17;1.13;;;1.13;;
20567;SDS011;10442;49.932;11.592;2023-07-28T12:40:48;4.03;;;1.27;;
20567;SDS011;10442;49.932;11.592;2023-07-28T12:43:19;0.77;;;0.77;;
20567;SDS011;10442;49.932;11.592;2023-07-28T12:45:49;0.95;;;0.95;;
20567;SDS011;10442;49.932;11.592;2023-07-28T12:48:20;1.00;;;1.00;;
20567;SDS011;10442;49.932;11.592;2023-07-28T12:50:48;1.58;;;1.00;;
20567;SDS011;10442;49.932;11.592;2023-07-28T12:53:16;1.23;;;1.13;;
20567;SDS011;10442;49.932;11.592;2023-07-28T12:55:49;2.65;;;1.05;;
20567;SDS011;10442;49.932;11.592;2023-07-28T12:58:20;2.20;;;2.00;;
20567;SDS011;10442;49.932;11.592;2023-07-28T13:00:50;1.45;;;1.27;;
20567;SDS011;10442;49.932;11.592;2023-07-28T13:03:21;1.42;;;1.33;;
20567;SDS011;10442;49.932;11.592;2023-07-28T13:05:49;1.90;;;0.90;;
20567;SDS011;10442;49.932;11.592;2023-07-28T13:08:16;1.63;;;1.05;;
20567;SDS011;10442;49.932;11.592;2023-07-28T13:10:44;1.10;;;1.10;;
20567;SDS011;10442;49.932;11.592;2023-07-28T13:13:15;2.55;;;0.82;;
20567;SDS011;10442;49.932;11.592;2023-07-28T13:15:43;3.13;;;0.90;;
20567;SDS011;10442;49.932;11.592;2023-07-28T13:18:10;3.60;;;1.30;;
20567;SDS011;10442;49.932;11.592;2023-07-28T13:20:38;2.45;;;1.30;;
20567;SDS011;10442;49.932;11.592;2023-07-28T13:23:05;1.10;;;1.10;;
20567;SDS011;10442;49.932;11.592;2023-07-28T13:25:33;1.30;;;1.13;;
20567;SDS011;10442;49.932;11.592;2023-07-28T13:28:00;1.17;;;1.17;;
20567;SDS011;10442;49.932;11.592;2023-07-28T13:30:28;1.00;;;1.00;;
20567;SDS011;10442;49.932;11.592;2023-07-28T13:32:56;3.40;;;1.67;;
20567;SDS011;10442;49.932;11.592;2023-07-28T13:35:24;1.55;;;1.45;;
20567;SDS011;10442;49.932;11.592;2023-07-28T13:37:52;1.55;;;1.20;;
20567;SDS011;10442;49.932;11.592;2023-07-28T13:40:19;1.42;;;1.33;;
20567;SDS011;10442;49.932;11.592;2023-07-28T13:42:47;1.98;;;1.23;;
20567;SDS011;10442;49.932;11.592;2023-07-28T13:45:15;2.35;;;1.17;;
20567;SDS011;10442;49.932;11.592;2023-07-28T13:47:42;2.00;;;1.73;;
20567;SDS011;10442;49.932;11.592;2023-07-28T13:50:10;5.22;;;4.13;;
20567;SDS011;10442;49.932;11.592;2023-07-28T13:52:38;4.20;;;3.92;;
20567;SDS011;10442;49.932;11.592;2023-07-28T13:55:05;1.48;;;1.38;;
20567;SDS011;10442;49.932;11.592;2023-07-28T13:57:36;4.70;;;4.35;;
20567;SDS011;10442;49.932;11.592;2023-07-28T14:00:04;3.30;;;3.10;;
20567;SDS011;10442;49.932;11.592;2023-07-28T14:02:36;5.00;;;3.67;;
20567;SDS011;10442;49.932;11.592;2023-07-28T14:05:04;15.07;;;13.75;;
20567;SDS011;10442;49.932;11.592;2023-07-28T14:07:32;6.18;;;5.78;;
20567;SDS011;10442;49.932;11.592;2023-07-28T14:10:01;22.42;;;20.42;;
20567;SDS011;10442;49.932;11.592;2023-07-28T14:12:33;19.73;;;18.08;;
20567;SDS011;10442;49.932;11.592;2023-07-28T14:15:01;25.65;;;23.75;;
20567;SDS011;10442;49.932;11.592;2023-07-28T14:17:29;5.63;;;5.10;;
20567;SDS011;10442;49.932;11.592;2023-07-28T14:19:56;3.45;;;3.25;;
20567;SDS011;10442;49.932;11.592;2023-07-28T14:22:24;2.10;;;2.00;;
20567;SDS011;10442;49.932;11.592;2023-07-28T14:24:51;2.80;;;1.80;;
20567;SDS011;10442;49.932;11.592;2023-07-28T14:27:19;1.45;;;1.35;;
20567;SDS011;10442;49.932;11.592;2023-07-28T14:29:46;4.03;;;1.65;;
20567;SDS011;10442;49.932;11.592;2023-07-28T14:32:14;6.78;;;5.78;;
20567;SDS011;10442;49.932;11.592;2023-07-28T14:34:41;2.50;;;2.25;;
20567;SDS011;10442;49.932;11.592;2023-07-28T14:37:09;3.45;;;2.67;;
20567;SDS011;10442;49.932;11.592;2023-07-28T14:39:38;1.90;;;1.80;;
20567;SDS011;10442;49.932;11.592;2023-07-28T14:42:06;3.00;;;2.78;;
20567;SDS011;10442;49.932;11.592;2023-07-28T14:44:33;13.90;;;12.82;;
20567;SDS011;10442;49.932;11.592;2023-07-28T14:47:01;4.10;;;3.70;;
20567;SDS011;10442;49.932;11.592;2023-07-28T14:49:29;2.75;;;2.65;;
20567;SDS011;10442;49.932;11.592;2023-07-28T14:51:56;3.08;;;2.00;;
20567;SDS011;10442;49.932;11.592;2023-07-28T14:54:24;1.30;;;1.30;;
20567;SDS011;10442;49.932;11.592;2023-07-28T14:56:51;1.15;;;1.15;;
20567;SDS011;10442;49.932;11.592;2023-07-28T14:59:19;1.70;;;1.60;;